createdAt,value
2023-01-12T00:00:07.768Z,22.6
2023-01-12T00:01:10.356Z,22.7
2023-01-12T00:02:12.648Z,22.8
2023-01-12T00:03:15.571Z,22.7
2023-01-12T00:04:17.847Z,22.7
2023-01-12T00:05:20.441Z,22.8
2023-01-12T00:06:22.722Z,22.6
2023-01-12T00:07:24.975Z,22.8
2023-01-12T00:08:27.201Z,22.9
2023-01-12T00:09:29.168Z,22.8
2023-01-12T00:10:31.695Z,22.8
2023-01-12T00:11:34.273Z,22.8
2023-01-12T00:12:36.822Z,22.8
2023-01-12T00:13:39.346Z,22.9
2023-01-12T00:14:41.573Z,22.9
2023-01-12T00:15:44.145Z,22.8
2023-01-12T00:16:46.826Z,22.8
2023-01-12T00:17:48.849Z,22.9
2023-01-12T00:18:51.059Z,22.9
2023-01-12T00:19:52.998Z,22.9
2023-01-12T00:20:55.501Z,22.9
2023-01-12T00:21:57.722Z,22.9
2023-01-12T00:22:59.752Z,22.9
2023-01-12T00:24:02.257Z,22.8
2023-01-12T00:25:04.783Z,22.9
2023-01-12T00:26:07.281Z,22.9
2023-01-12T00:27:09.596Z,22.9
2023-01-12T00:28:11.903Z,22.9
2023-01-12T00:29:14.436Z,22.8
2023-01-12T00:30:16.962Z,22.9
2023-01-12T00:31:19.545Z,22.8
2023-01-12T00:32:22.548Z,22.9
2023-01-12T00:33:24.507Z,22.9
2023-01-12T00:34:29.383Z,22.9
2023-01-12T00:35:32.015Z,22.8
2023-01-12T00:36:34.521Z,22.9
2023-01-12T00:37:37.041Z,22.9
2023-01-12T00:38:39.555Z,23
2023-01-12T00:39:45.783Z,23
2023-01-12T00:40:46.820Z,23
2023-01-12T00:41:49.357Z,23
2023-01-12T00:42:51.957Z,23
2023-01-12T00:43:54.532Z,22.8
2023-01-12T00:44:57.053Z,23.1
2023-01-12T00:45:59.390Z,22.9
2023-01-12T00:47:02.169Z,23.1
2023-01-12T00:48:04.679Z,23
2023-01-12T00:49:07.217Z,22.9
2023-01-12T00:50:09.749Z,23
2023-01-12T00:51:12.278Z,23
2023-01-12T00:52:21.608Z,22.9
2023-01-12T00:53:19.759Z,23
2023-01-12T00:54:21.989Z,23
2023-01-12T00:55:24.529Z,23
2023-01-12T00:56:27.089Z,23
2023-01-12T00:57:29.329Z,23
2023-01-12T00:58:31.753Z,23.1
2023-01-12T00:59:34.054Z,23.1
2023-01-12T01:00:36.558Z,23.1
2023-01-12T01:01:38.852Z,23
2023-01-12T01:02:42.054Z,22.9
2023-01-12T01:03:45.013Z,23.1
2023-01-12T01:04:47.225Z,23.2
2023-01-12T01:05:49.463Z,23.1
2023-01-12T01:06:51.955Z,23.1
2023-01-12T01:07:54.508Z,22.9
2023-01-12T01:08:56.470Z,23.3
2023-01-12T01:09:58.683Z,23.1
2023-01-12T01:11:00.628Z,23.2
2023-01-12T01:12:03.149Z,23.2
2023-01-12T01:13:05.687Z,23.2
2023-01-12T01:14:08.273Z,23.1
2023-01-12T01:15:10.564Z,23.2
2023-01-12T01:16:12.896Z,23.1
2023-01-12T01:17:15.412Z,23.1
2023-01-12T01:18:17.937Z,23.1
2023-01-12T01:19:20.966Z,23.1
2023-01-12T01:20:23.497Z,23.2
2023-01-12T01:21:26.019Z,23.1
2023-01-12T01:22:28.540Z,23.1
2023-01-12T01:23:31.061Z,23
2023-01-12T01:24:33.306Z,23.1
2023-01-12T01:25:35.071Z,23.2
2023-01-12T01:26:37.338Z,23.1
2023-01-12T01:27:39.868Z,23.3
2023-01-12T01:28:42.101Z,23.2
2023-01-12T01:29:44.684Z,23
2023-01-12T01:30:47.313Z,23.1
2023-01-12T01:31:49.768Z,23.2
2023-01-12T01:32:52.309Z,23.4
2023-01-12T01:33:54.269Z,23.3
2023-01-12T01:34:56.799Z,23.2
2023-01-12T01:35:59.028Z,23.2
2023-01-12T01:37:01.545Z,23.2
2023-01-12T01:38:03.223Z,23.3
2023-01-12T01:39:05.454Z,23.2
2023-01-12T01:41:25.117Z,23.4
2023-01-12T01:42:27.342Z,23.1
2023-01-12T01:43:29.646Z,23.2
2023-01-12T01:44:32.173Z,23.3
2023-01-12T01:45:34.480Z,23.2
2023-01-12T01:46:36.801Z,23.2
2023-01-12T01:47:39.276Z,23.2
2023-01-12T01:48:41.550Z,23.1
2023-01-12T01:49:44.102Z,23.3
2023-01-12T01:50:46.362Z,23.2
2023-01-12T01:51:48.869Z,23.3
2023-01-12T01:52:51.142Z,23
2023-01-12T01:53:53.654Z,23.1
2023-01-12T01:54:55.889Z,23.2
2023-01-12T01:55:58.443Z,23.3
2023-01-12T01:57:00.678Z,23.3
2023-01-12T01:58:02.367Z,23.3
2023-01-12T01:59:04.903Z,23.2
2023-01-12T02:00:07.414Z,23.4
2023-01-12T02:01:10.120Z,23.3
2023-01-12T02:02:13.093Z,23.2
2023-01-12T02:03:15.023Z,23.3
2023-01-12T02:04:17.543Z,23.1
2023-01-12T02:05:19.771Z,23.2
2023-01-12T02:06:22.311Z,23.2
2023-01-12T02:07:24.590Z,23.1
2023-01-12T02:08:27.096Z,23.2
2023-01-12T02:09:29.611Z,23.3
2023-01-12T02:10:32.110Z,23.2
2023-01-12T02:11:34.635Z,23.3
2023-01-12T02:12:36.841Z,23.2
2023-01-12T02:13:39.099Z,23.2
2023-01-12T02:14:41.608Z,23.2
2023-01-12T02:15:43.611Z,23.3
2023-01-12T02:16:46.324Z,23.3
2023-01-12T02:17:48.928Z,23.3
2023-01-12T02:18:50.905Z,23.4
2023-01-12T02:19:53.447Z,23.3
2023-01-12T02:20:55.696Z,23.3
2023-01-12T02:21:57.670Z,23.4
2023-01-12T02:23:00.275Z,23.4
2023-01-12T02:24:02.777Z,23.4
2023-01-12T02:25:05.265Z,23.5
2023-01-12T02:26:07.776Z,23.5
2023-01-12T02:27:10.294Z,23.4
2023-01-12T02:28:12.798Z,23.2
2023-01-12T02:29:15.032Z,23.4
2023-01-12T02:30:17.535Z,23.3
2023-01-12T02:31:20.089Z,23.4
2023-01-12T02:32:23.050Z,23.4
2023-01-12T02:33:25.630Z,23.3
2023-01-12T02:34:27.854Z,23.3
2023-01-12T02:35:30.131Z,23.4
2023-01-12T02:36:32.699Z,23.3
2023-01-12T02:37:35.199Z,23.2
2023-01-12T02:38:37.699Z,23.4
2023-01-12T02:39:39.939Z,23.3
2023-01-12T02:40:42.453Z,23.4
2023-01-12T02:41:44.968Z,23.4
2023-01-12T02:42:47.520Z,23.4
2023-01-12T02:43:49.816Z,23.4
2023-01-12T02:44:52.328Z,23.5
2023-01-12T02:45:54.860Z,23.3
2023-01-12T02:46:57.084Z,23.5
2023-01-12T02:47:59.704Z,23.5
2023-01-12T02:49:02.291Z,23.4
2023-01-12T02:50:04.259Z,23.4
2023-01-12T02:51:06.805Z,23.2
2023-01-12T02:52:09.374Z,23.4
2023-01-12T02:53:11.865Z,23.4
2023-01-12T02:54:13.815Z,23.3
2023-01-12T02:55:16.377Z,23.3
2023-01-12T02:56:18.592Z,23.3
2023-01-12T02:57:20.557Z,23.3
2023-01-12T02:58:23.058Z,23.2
2023-01-12T02:59:25.292Z,23.3
2023-01-12T03:00:27.631Z,23.4
2023-01-12T03:01:30.151Z,23.4
2023-01-12T03:02:32.667Z,23.4
2023-01-12T03:03:35.339Z,23.5
2023-01-12T03:04:37.907Z,23.4
2023-01-12T03:05:40.142Z,23.2
2023-01-12T03:06:42.672Z,23.4
2023-01-12T03:07:44.626Z,23.4
2023-01-12T03:08:47.113Z,23.4
2023-01-12T03:09:49.347Z,23.4
2023-01-12T03:10:51.844Z,23.4
2023-01-12T03:11:54.361Z,23.4
2023-01-12T03:12:56.859Z,23.4
2023-01-12T03:13:59.382Z,23.6
2023-01-12T03:15:01.898Z,23.4
2023-01-12T03:16:03.851Z,23.5
2023-01-12T03:17:06.333Z,23.5
2023-01-12T03:18:08.584Z,23.3
2023-01-12T03:19:11.259Z,23.4
2023-01-12T03:20:13.821Z,23.3
2023-01-12T03:21:16.351Z,23.2
2023-01-12T03:22:18.843Z,23.4
2023-01-12T03:23:21.069Z,23.3
2023-01-12T03:24:23.577Z,23.3
2023-01-12T03:25:26.145Z,23.2
2023-01-12T03:26:28.668Z,23.3
2023-01-12T03:27:30.950Z,23.4
2023-01-12T03:28:33.456Z,23.4
2023-01-12T03:29:35.679Z,23.2
2023-01-12T03:30:38.226Z,23.3
2023-01-12T03:31:40.506Z,23.4
2023-01-12T03:32:42.617Z,23.4
2023-01-12T03:33:44.837Z,23.4
2023-01-12T03:34:47.522Z,23.3
2023-01-12T03:35:50.065Z,23.3
2023-01-12T03:36:52.569Z,23.3
2023-01-12T03:37:55.060Z,23.5
2023-01-12T03:38:57.578Z,23.5
2023-01-12T03:40:00.097Z,23.4
2023-01-12T03:41:02.330Z,23.4
2023-01-12T03:42:04.831Z,23.4
2023-01-12T03:43:07.344Z,23.4
2023-01-12T03:44:09.856Z,23.3
2023-01-12T03:45:12.372Z,23.2
2023-01-12T03:46:14.887Z,23.3
2023-01-12T03:47:16.579Z,23.4
2023-01-12T03:48:19.103Z,23.4
2023-01-12T03:49:21.340Z,23.2
2023-01-12T03:50:23.911Z,23.3
2023-01-12T03:51:26.459Z,23.4
2023-01-12T03:52:28.696Z,23.3
2023-01-12T03:53:30.975Z,23.4
2023-01-12T03:54:33.474Z,23.4
2023-01-12T03:55:35.421Z,23.4
2023-01-12T03:56:37.963Z,23.5
2023-01-12T03:57:40.495Z,23.5
2023-01-12T03:58:43.024Z,23.5
2023-01-12T03:59:45.523Z,23.3
2023-01-12T04:00:48.064Z,23.4
2023-01-12T04:01:51.078Z,23.4
2023-01-12T04:02:54.443Z,23.3
2023-01-12T04:03:57.162Z,23.4
2023-01-12T04:04:59.402Z,23.5
2023-01-12T04:06:01.968Z,23.4
2023-01-12T04:07:04.707Z,23.4
2023-01-12T04:08:07.003Z,23.4
2023-01-12T04:09:09.544Z,23.4
2023-01-12T04:10:12.117Z,23.4
2023-01-12T04:11:13.770Z,23.3
2023-01-12T04:12:15.980Z,23.3
2023-01-12T04:13:18.485Z,23.2
2023-01-12T04:14:20.702Z,23.4
2023-01-12T04:15:22.931Z,23.4
2023-01-12T04:16:25.522Z,23.3
2023-01-12T04:17:28.083Z,23.3
2023-01-12T04:18:30.618Z,23.3
2023-01-12T04:19:32.847Z,23.3
2023-01-12T04:20:35.040Z,23.2
2023-01-12T04:21:37.417Z,23.2
2023-01-12T04:22:39.973Z,23.2
2023-01-12T04:23:42.539Z,23.2
2023-01-12T04:24:45.027Z,23.4
2023-01-12T04:25:47.019Z,23.2
2023-01-12T04:26:49.257Z,23.2
2023-01-12T04:27:51.812Z,23.3
2023-01-12T04:28:54.849Z,23.3
2023-01-12T04:29:57.114Z,23.2
2023-01-12T04:30:59.623Z,23.2
2023-01-12T04:32:02.199Z,23.2
2023-01-12T04:33:04.623Z,23.3
2023-01-12T04:34:07.154Z,23.1
2023-01-12T04:35:09.662Z,23.1
2023-01-12T04:36:12.164Z,23.1
2023-01-12T04:37:14.768Z,23.3
2023-01-12T04:38:17.311Z,23.1
2023-01-12T04:39:19.257Z,23.2
2023-01-12T04:40:21.199Z,23
2023-01-12T04:41:23.492Z,23.1
2023-01-12T04:42:26.005Z,23
2023-01-12T04:43:28.223Z,23.2
2023-01-12T04:44:30.183Z,23
2023-01-12T04:45:32.758Z,23.1
2023-01-12T04:46:35.651Z,23
2023-01-12T04:47:38.175Z,23.3
2023-01-12T04:48:40.157Z,23.1
2023-01-12T04:49:42.723Z,23.1
2023-01-12T04:50:45.214Z,23
2023-01-12T04:51:47.009Z,23.3
2023-01-12T04:52:49.596Z,23
2023-01-12T04:53:52.127Z,23
2023-01-12T04:54:55.601Z,23.1
2023-01-12T04:55:58.816Z,23.2
2023-01-12T04:57:01.316Z,23.1
2023-01-12T04:58:03.835Z,23
2023-01-12T04:59:05.872Z,23.2
2023-01-12T05:00:08.113Z,23.1
2023-01-12T05:01:10.174Z,23
2023-01-12T05:02:13.452Z,23
2023-01-12T05:03:16.054Z,23.2
2023-01-12T05:04:18.583Z,23
2023-01-12T05:05:21.407Z,23.1
2023-01-12T05:06:23.934Z,23
2023-01-12T05:07:26.422Z,23
2023-01-12T05:08:29.024Z,23.1
2023-01-12T05:09:31.653Z,23.1
2023-01-12T05:10:34.165Z,23.2
2023-01-12T05:11:36.639Z,23
2023-01-12T05:12:39.161Z,23
2023-01-12T05:13:41.148Z,23.1
2023-01-12T05:14:43.647Z,23.1
2023-01-12T05:15:46.168Z,23.1
2023-01-12T05:16:48.885Z,23.1
2023-01-12T05:17:51.395Z,23.1
2023-01-12T05:18:53.675Z,23
2023-01-12T05:19:56.222Z,23.1
2023-01-12T05:21:02.409Z,23
2023-01-12T05:22:04.634Z,23
2023-01-12T05:23:06.878Z,22.9
2023-01-12T05:24:09.597Z,23
2023-01-12T05:25:12.269Z,23
2023-01-12T05:26:14.770Z,23.1
2023-01-12T05:27:17.267Z,23
2023-01-12T05:28:19.532Z,23.1
2023-01-12T05:29:22.051Z,23
2023-01-12T05:30:24.260Z,23
2023-01-12T05:31:26.933Z,23.1
2023-01-12T05:32:29.455Z,23
2023-01-12T05:33:31.973Z,23
2023-01-12T05:34:34.221Z,22.8
2023-01-12T05:35:36.476Z,23
2023-01-12T05:36:38.970Z,23.1
2023-01-12T05:37:41.499Z,23.1
2023-01-12T05:38:43.726Z,23
2023-01-12T05:39:46.323Z,23.1
2023-01-12T05:40:48.883Z,23
2023-01-12T05:41:51.142Z,22.9
2023-01-12T05:42:53.638Z,22.9
2023-01-12T05:43:56.185Z,23
2023-01-12T05:44:58.802Z,23
2023-01-12T05:46:01.338Z,22.8
2023-01-12T05:47:04.214Z,22.9
2023-01-12T05:48:06.779Z,23
2023-01-12T05:49:09.282Z,22.9
2023-01-12T05:50:11.803Z,22.8
2023-01-12T05:51:14.352Z,22.9
2023-01-12T05:52:16.894Z,22.9
2023-01-12T05:53:19.143Z,22.8
2023-01-12T05:54:21.644Z,22.9
2023-01-12T05:55:24.098Z,23
2023-01-12T05:56:26.396Z,22.9
2023-01-12T05:57:29.100Z,23
2023-01-12T05:58:31.604Z,23
2023-01-12T05:59:33.843Z,23
2023-01-12T06:00:36.348Z,23
2023-01-12T06:01:38.861Z,22.9
2023-01-12T06:02:40.532Z,22.9
2023-01-12T06:03:43.060Z,22.9
2023-01-12T06:04:45.655Z,23
2023-01-12T06:05:48.199Z,23
2023-01-12T06:06:50.428Z,23
2023-01-12T06:07:52.654Z,22.9
2023-01-12T06:08:55.174Z,23
2023-01-12T06:09:57.732Z,23.1
2023-01-12T06:11:00.335Z,23
2023-01-12T06:12:02.917Z,23
2023-01-12T06:13:07.899Z,23
2023-01-12T06:14:10.429Z,23
2023-01-12T06:15:12.716Z,23
2023-01-12T06:16:15.030Z,22.9
2023-01-12T06:17:17.666Z,22.9
2023-01-12T06:18:19.892Z,23
2023-01-12T06:19:22.419Z,22.9
2023-01-12T06:20:24.935Z,22.8
2023-01-12T06:21:26.923Z,22.8
2023-01-12T06:22:29.153Z,23
2023-01-12T06:23:35.049Z,22.9
2023-01-12T06:24:36.059Z,22.9
2023-01-12T06:25:38.567Z,22.9
2023-01-12T06:26:40.901Z,23
2023-01-12T06:27:43.556Z,22.8
2023-01-12T06:28:45.513Z,22.8
2023-01-12T06:29:48.043Z,22.9
2023-01-12T06:30:50.296Z,23
2023-01-12T06:31:52.723Z,22.9
2023-01-12T06:32:55.276Z,22.9
2023-01-12T06:33:57.863Z,22.8
2023-01-12T06:35:06.937Z,22.9
2023-01-12T06:36:05.139Z,23
2023-01-12T06:37:07.373Z,22.9
2023-01-12T06:38:09.609Z,22.8
2023-01-12T06:39:11.582Z,22.9
2023-01-12T06:40:13.254Z,22.9
2023-01-12T06:41:15.549Z,22.9
2023-01-12T06:42:18.237Z,22.9
2023-01-12T06:43:20.860Z,22.8
2023-01-12T06:44:23.084Z,22.7
2023-01-12T06:45:25.615Z,23
2023-01-12T06:46:27.375Z,22.9
2023-01-12T06:47:30.370Z,23
2023-01-12T06:48:38.550Z,22.9
2023-01-12T06:49:37.558Z,22.8
2023-01-12T06:50:39.790Z,23
2023-01-12T06:51:42.067Z,22.9
2023-01-12T06:52:44.304Z,23
2023-01-12T06:53:46.566Z,22.9
2023-01-12T06:54:49.098Z,23
2023-01-12T06:55:51.336Z,22.9
2023-01-12T06:56:53.566Z,22.9
2023-01-12T06:57:56.186Z,22.8
2023-01-12T06:58:58.748Z,22.8
2023-01-12T07:00:01.262Z,22.8
2023-01-12T07:01:03.623Z,22.9
2023-01-12T07:02:06.616Z,22.9
2023-01-12T07:03:09.543Z,22.8
2023-01-12T07:04:11.013Z,22.9
2023-01-12T07:05:13.499Z,22.8
2023-01-12T07:06:16.017Z,22.9
2023-01-12T07:07:18.043Z,22.8
2023-01-12T07:08:19.995Z,22.8
2023-01-12T07:09:22.521Z,22.7
2023-01-12T07:10:24.776Z,22.9
2023-01-12T07:11:27.057Z,22.8
2023-01-12T07:12:29.292Z,23
2023-01-12T07:13:31.960Z,22.8
2023-01-12T07:14:34.417Z,22.8
2023-01-12T07:15:36.414Z,22.8
2023-01-12T07:16:39.006Z,22.8
2023-01-12T07:17:41.533Z,22.8
2023-01-12T07:18:44.093Z,22.8
2023-01-12T07:19:46.593Z,22.8
2023-01-12T07:20:49.127Z,22.8
2023-01-12T07:21:51.352Z,22.9
2023-01-12T07:22:53.895Z,22.7
2023-01-12T07:23:55.920Z,22.7
2023-01-12T07:24:58.449Z,22.8
2023-01-12T07:26:00.967Z,22.9
2023-01-12T07:27:03.537Z,22.7
2023-01-12T07:28:06.101Z,22.9
2023-01-12T07:29:08.390Z,22.8
2023-01-12T07:30:10.969Z,22.8
2023-01-12T07:31:12.960Z,22.7
2023-01-12T07:32:15.894Z,22.8
2023-01-12T07:33:18.791Z,22.8
2023-01-12T07:34:21.121Z,22.8
2023-01-12T07:35:23.356Z,22.8
2023-01-12T07:36:25.924Z,22.7
2023-01-12T07:37:28.501Z,22.8
2023-01-12T07:38:30.786Z,22.8
2023-01-12T07:39:33.053Z,22.9
2023-01-12T07:40:35.572Z,22.9
2023-01-12T07:41:37.624Z,22.6
2023-01-12T07:42:39.600Z,22.8
2023-01-12T07:43:41.825Z,22.7
2023-01-12T07:44:44.271Z,22.8
2023-01-12T07:45:46.901Z,22.8
2023-01-12T07:46:49.212Z,22.8
2023-01-12T07:47:51.491Z,22.8
2023-01-12T07:48:53.464Z,22.8
2023-01-12T07:49:55.736Z,22.6
2023-01-12T07:50:58.012Z,22.8
2023-01-12T07:52:00.039Z,22.8
2023-01-12T07:53:02.599Z,22.8
2023-01-12T07:54:04.846Z,22.8
2023-01-12T07:55:07.096Z,22.8
2023-01-12T07:56:09.061Z,22.7
2023-01-12T07:57:11.013Z,22.8
2023-01-12T07:58:13.037Z,22.8
2023-01-12T07:59:15.396Z,22.8
2023-01-12T08:00:18.045Z,22.7
2023-01-12T08:01:20.766Z,22.8
2023-01-12T08:02:23.849Z,22.9
2023-01-12T08:03:26.899Z,22.9
2023-01-12T08:04:29.139Z,22.7
2023-01-12T08:05:31.433Z,22.7
2023-01-12T08:06:34.317Z,22.6
2023-01-12T08:07:36.868Z,22.8
2023-01-12T08:08:39.390Z,22.8
2023-01-12T08:09:41.388Z,22.6
2023-01-12T08:10:43.273Z,22.9
2023-01-12T08:11:45.604Z,22.8
2023-01-12T08:12:47.574Z,22.7
2023-01-12T08:13:50.119Z,22.7
2023-01-12T08:14:52.631Z,22.8
2023-01-12T08:15:55.323Z,22.7
2023-01-12T08:16:58.294Z,22.5
2023-01-12T08:18:00.551Z,22.8
2023-01-12T08:19:08.187Z,22.8
2023-01-12T08:20:10.418Z,22.5
2023-01-12T08:21:12.699Z,22.7
2023-01-12T08:22:15.256Z,22.6
2023-01-12T08:23:17.533Z,22.8
2023-01-12T08:24:20.079Z,22.6
2023-01-12T08:25:22.312Z,22.8
2023-01-12T08:26:24.857Z,22.9
2023-01-12T08:27:26.830Z,22.5
2023-01-12T08:28:28.551Z,22.6
2023-01-12T08:29:30.223Z,22.5
2023-01-12T08:30:32.519Z,22.7
2023-01-12T08:31:35.149Z,22.8
2023-01-12T08:32:37.478Z,22.6
2023-01-12T08:33:40.016Z,22.5
2023-01-12T08:34:41.993Z,22.7
2023-01-12T08:35:44.330Z,22.6
2023-01-12T08:36:46.853Z,22.7
2023-01-12T08:37:49.394Z,22.7
2023-01-12T08:38:51.931Z,22.7
2023-01-12T08:39:54.465Z,22.5
2023-01-12T08:40:56.688Z,22.5
2023-01-12T08:41:59.244Z,22.5
2023-01-12T08:43:01.512Z,22.6
2023-01-12T08:44:03.758Z,22.6
2023-01-12T08:45:06.294Z,22.6
2023-01-12T08:46:08.827Z,22.5
2023-01-12T08:47:11.360Z,22.5
2023-01-12T08:48:13.957Z,22.5
2023-01-12T08:49:16.752Z,22.6
2023-01-12T08:50:19.606Z,22.6
2023-01-12T08:51:21.844Z,22.5
2023-01-12T08:52:24.381Z,22.3
2023-01-12T08:53:26.335Z,22.6
2023-01-12T08:54:28.841Z,22.6
2023-01-12T08:55:31.094Z,22.4
2023-01-12T08:56:33.350Z,22.4
2023-01-12T08:57:35.591Z,22.6
2023-01-12T08:58:37.859Z,22.7
2023-01-12T08:59:39.878Z,22.6
2023-01-12T09:00:41.934Z,22.7
2023-01-12T09:01:44.555Z,22.6
2023-01-12T09:02:47.952Z,22.6
2023-01-12T09:03:50.870Z,22.6
2023-01-12T09:04:53.117Z,22.5
2023-01-12T09:05:55.382Z,22.6
2023-01-12T09:07:00.002Z,22.5
2023-01-12T09:08:02.425Z,22.6
2023-01-12T09:09:04.371Z,22.5
2023-01-12T09:10:06.652Z,22.7
2023-01-12T09:11:09.207Z,22.5
2023-01-12T09:12:10.903Z,22.6
2023-01-12T09:13:13.146Z,22.6
2023-01-12T09:14:15.661Z,22.5
2023-01-12T09:15:18.006Z,22.5
2023-01-12T09:16:20.097Z,22.5
2023-01-12T09:17:22.969Z,22.7
2023-01-12T09:18:25.718Z,22.7
2023-01-12T09:19:28.283Z,22.5
2023-01-12T09:20:30.817Z,22.4
2023-01-12T09:21:33.333Z,22.6
2023-01-12T09:22:35.844Z,22.4
2023-01-12T09:23:38.112Z,22.5
2023-01-12T09:24:40.383Z,22.5
2023-01-12T09:25:42.346Z,22.5
2023-01-12T09:26:44.670Z,22.6
2023-01-12T09:27:47.230Z,22.5
2023-01-12T09:28:49.513Z,22.4
2023-01-12T09:29:52.119Z,22.5
2023-01-12T09:30:54.633Z,22.5
2023-01-12T09:31:56.956Z,22.6
2023-01-12T09:32:59.167Z,22.6
2023-01-12T09:34:01.863Z,22.5
2023-01-12T09:35:04.515Z,22.6
2023-01-12T09:36:06.803Z,22.4
2023-01-12T09:37:09.124Z,22.5
2023-01-12T09:38:11.381Z,22.6
2023-01-12T09:39:22.420Z,22.5
2023-01-12T09:40:18.868Z,22.6
2023-01-12T09:41:21.090Z,22.5
2023-01-12T09:42:23.302Z,22.6
2023-01-12T09:43:25.914Z,22.5
2023-01-12T09:44:28.423Z,22.7
2023-01-12T09:45:30.972Z,22.7
2023-01-12T09:46:33.781Z,22.6
2023-01-12T09:47:36.068Z,22.6
2023-01-12T09:48:38.633Z,22.5
2023-01-12T09:49:40.983Z,22.6
2023-01-12T09:50:43.284Z,22.5
2023-01-12T09:51:45.834Z,22.7
2023-01-12T09:52:48.109Z,22.6
2023-01-12T09:53:50.631Z,22.6
2023-01-12T09:54:52.891Z,22.5
2023-01-12T09:55:55.171Z,22.6
2023-01-12T09:56:57.709Z,22.5
2023-01-12T09:58:00.253Z,22.4
2023-01-12T09:59:02.185Z,22.6
2023-01-12T10:00:04.495Z,22.7
2023-01-12T10:01:08.992Z,22.5
2023-01-12T10:02:12.069Z,22.7
2023-01-12T10:03:14.167Z,22.5
2023-01-12T10:04:16.844Z,22.5
2023-01-12T10:05:19.450Z,22.6
2023-01-12T10:06:27.236Z,22.5
2023-01-12T10:07:29.510Z,22.5
2023-01-12T10:08:32.023Z,22.4
2023-01-12T10:09:34.533Z,22.7
2023-01-12T10:10:36.787Z,22.5
2023-01-12T10:11:38.735Z,22.4
2023-01-12T10:12:40.996Z,22.6
2023-01-12T10:13:43.633Z,22.5
2023-01-12T10:14:46.166Z,22.7
2023-01-12T10:15:48.716Z,22.5
2023-01-12T10:16:50.381Z,22.4
2023-01-12T10:17:52.909Z,22.4
2023-01-12T10:18:55.492Z,22.5
2023-01-12T10:19:58.102Z,22.6
2023-01-12T10:21:00.466Z,22.6
2023-01-12T10:22:02.759Z,22.7
2023-01-12T10:23:05.024Z,22.5
2023-01-12T10:24:07.020Z,22.5
2023-01-12T10:25:09.516Z,22.5
2023-01-12T10:26:12.027Z,22.6
2023-01-12T10:27:14.565Z,22.8
2023-01-12T10:28:16.617Z,22.5
2023-01-12T10:29:18.855Z,22.8
2023-01-12T10:30:21.475Z,22.7
2023-01-12T10:31:23.832Z,22.6
2023-01-12T10:32:28.679Z,22.6
2023-01-12T10:33:31.633Z,22.5
2023-01-12T10:34:33.848Z,22.7
2023-01-12T10:35:36.375Z,22.7
2023-01-12T10:36:39.005Z,22.7
2023-01-12T10:37:42.936Z,22.6
2023-01-12T10:38:45.541Z,22.7
2023-01-12T10:39:47.493Z,22.7
2023-01-12T10:40:49.815Z,22.7
2023-01-12T10:41:51.750Z,22.8
2023-01-12T10:42:55.574Z,22.8
2023-01-12T10:43:58.216Z,22.7
2023-01-12T10:45:00.499Z,22.5
2023-01-12T10:46:02.958Z,22.5
2023-01-12T10:47:05.331Z,22.7
2023-01-12T10:48:07.568Z,22.6
2023-01-12T10:49:10.068Z,22.5
2023-01-12T10:50:12.585Z,22.5
2023-01-12T10:51:14.523Z,22.6
2023-01-12T10:52:17.127Z,22.6
2023-01-12T10:53:19.669Z,22.6
2023-01-12T10:54:21.966Z,22.6
2023-01-12T10:55:24.233Z,22.6
2023-01-12T10:56:26.549Z,22.5
2023-01-12T10:57:28.783Z,22.7
2023-01-12T10:58:31.290Z,22.4
2023-01-12T10:59:33.533Z,22.4
2023-01-12T11:00:35.506Z,22.6
2023-01-12T11:01:37.836Z,22.5
2023-01-12T11:02:40.734Z,22.5
2023-01-12T11:03:43.574Z,22.5
2023-01-12T11:04:46.104Z,22.6
2023-01-12T11:05:48.336Z,22.6
2023-01-12T11:06:50.646Z,22.5
2023-01-12T11:07:52.998Z,22.6
2023-01-12T11:08:55.582Z,22.4
2023-01-12T11:09:58.177Z,22.6
2023-01-12T11:11:00.185Z,22.6
2023-01-12T11:12:02.713Z,22.7
2023-01-12T11:13:04.382Z,22.5
2023-01-12T11:14:06.690Z,22.6
2023-01-12T11:15:09.275Z,22.7
2023-01-12T11:16:11.677Z,22.6
2023-01-12T11:17:13.779Z,22.7
2023-01-12T11:18:16.306Z,22.6
2023-01-12T11:19:18.810Z,22.7
2023-01-12T11:20:21.058Z,22.5
2023-01-12T11:21:23.037Z,22.8
2023-01-12T11:22:25.322Z,22.5
2023-01-12T11:23:28.128Z,22.8
2023-01-12T11:24:30.683Z,22.5
2023-01-12T11:25:32.687Z,22.6
2023-01-12T11:26:35.220Z,22.6
2023-01-12T11:27:37.754Z,22.7
2023-01-12T11:28:40.281Z,22.6
2023-01-12T11:29:42.547Z,22.7
2023-01-12T11:30:45.136Z,22.6
2023-01-12T11:31:47.098Z,22.7
2023-01-12T11:32:49.351Z,22.6
2023-01-12T11:33:51.888Z,22.7
2023-01-12T11:34:53.823Z,22.7
2023-01-12T11:35:56.136Z,22.7
2023-01-12T11:36:58.077Z,22.6
2023-01-12T11:38:00.029Z,22.7
2023-01-12T11:39:02.654Z,22.7
2023-01-12T11:40:05.226Z,22.6
2023-01-12T11:41:07.545Z,22.6
2023-01-12T11:42:09.796Z,22.6
2023-01-12T11:43:12.326Z,22.5
2023-01-12T11:44:14.570Z,22.6
2023-01-12T11:45:16.541Z,22.5
2023-01-12T11:46:18.645Z,22.5
2023-01-12T11:47:20.476Z,22.8
2023-01-12T11:48:22.986Z,22.5
2023-01-12T11:49:25.556Z,22.6
2023-01-12T11:50:28.135Z,22.6
2023-01-12T11:51:30.306Z,22.6
2023-01-12T11:52:32.606Z,22.7
2023-01-12T11:53:35.132Z,22.6
2023-01-12T11:54:37.465Z,22.6
2023-01-12T11:55:39.757Z,22.4
2023-01-12T11:56:42.338Z,22.6
2023-01-12T11:57:44.291Z,22.6
2023-01-12T11:58:46.548Z,22.7
2023-01-12T11:59:49.104Z,22.7
2023-01-12T12:00:51.424Z,22.7
2023-01-12T12:01:54.226Z,22.4
2023-01-12T12:02:56.250Z,22.8
2023-01-12T12:03:58.847Z,22.6
2023-01-12T12:05:01.799Z,22.7
2023-01-12T12:06:03.554Z,22.5
2023-01-12T12:07:06.070Z,22.7
2023-01-12T12:08:08.361Z,22.6
2023-01-12T12:09:10.948Z,22.6
2023-01-12T12:10:13.418Z,22.7
2023-01-12T12:11:16.167Z,22.7
2023-01-12T12:12:18.800Z,22.9
2023-01-12T12:13:21.338Z,22.5
2023-01-12T12:14:23.585Z,22.6
2023-01-12T12:15:25.602Z,22.6
2023-01-12T12:16:27.885Z,22.6
2023-01-12T12:17:30.125Z,22.6
2023-01-12T12:18:32.342Z,22.7
2023-01-12T12:19:34.849Z,22.6
2023-01-12T12:20:37.122Z,22.6
2023-01-12T12:21:39.374Z,22.6
2023-01-12T12:22:41.650Z,22.7
2023-01-12T12:23:43.635Z,22.8
2023-01-12T12:24:45.625Z,22.6
2023-01-12T12:25:48.321Z,22.7
2023-01-12T12:26:50.923Z,22.7
2023-01-12T12:27:53.231Z,22.6
2023-01-12T12:28:55.749Z,22.7
2023-01-12T12:29:58.041Z,22.6
2023-01-12T12:31:00.289Z,22.6
2023-01-12T12:32:03.091Z,22.6
2023-01-12T12:33:05.308Z,22.5
2023-01-12T12:34:07.536Z,22.6
2023-01-12T12:35:09.904Z,22.5
2023-01-12T12:36:12.457Z,22.6
2023-01-12T12:37:14.725Z,22.6
2023-01-12T12:38:17.272Z,22.7
2023-01-12T12:39:19.790Z,22.6
2023-01-12T12:40:22.407Z,22.7
2023-01-12T12:41:25.074Z,22.7
2023-01-12T12:42:28.280Z,22.5
2023-01-12T12:43:30.906Z,22.7
2023-01-12T12:44:33.193Z,22.5
2023-01-12T12:45:35.745Z,22.5
2023-01-12T12:46:37.770Z,22.6
2023-01-12T12:47:42.104Z,22.5
2023-01-12T12:48:44.965Z,22.5
2023-01-12T12:49:47.501Z,22.5
2023-01-12T12:50:49.519Z,22.6
2023-01-12T12:51:52.067Z,22.5
2023-01-12T12:52:54.033Z,22.5
2023-01-12T12:53:56.315Z,22.7
2023-01-12T12:54:58.295Z,22.5
2023-01-12T12:56:00.580Z,22.5
2023-01-12T12:57:03.225Z,22.6
2023-01-12T12:58:05.783Z,22.7
2023-01-12T12:59:08.038Z,22.5
2023-01-12T13:00:10.310Z,22.7
2023-01-12T13:01:13.213Z,22.6
2023-01-12T13:02:15.699Z,22.5
2023-01-12T13:03:17.693Z,22.6
2023-01-12T13:04:20.221Z,22.5
2023-01-12T13:05:22.479Z,22.6
2023-01-12T13:06:24.501Z,22.6
2023-01-12T13:07:26.757Z,22.6
2023-01-12T13:08:28.599Z,22.8
2023-01-12T13:09:30.814Z,22.6
2023-01-12T13:10:33.072Z,22.6
2023-01-12T13:11:35.619Z,22.9
2023-01-12T13:12:38.316Z,22.7
2023-01-12T13:13:40.892Z,22.5
2023-01-12T13:14:43.448Z,22.6
2023-01-12T13:15:46.035Z,22.7
2023-01-12T13:16:48.542Z,22.5
2023-01-12T13:17:50.830Z,22.6
2023-01-12T13:18:53.094Z,22.7
2023-01-12T13:20:00.758Z,22.5
2023-01-12T13:21:00.362Z,22.8
2023-01-12T13:22:02.896Z,22.6
2023-01-12T13:23:05.134Z,22.6
2023-01-12T13:24:07.395Z,22.7
2023-01-12T13:25:09.652Z,22.7
2023-01-12T13:26:11.696Z,22.5
2023-01-12T13:27:13.822Z,22.5
2023-01-12T13:28:15.876Z,22.6
2023-01-12T13:29:18.431Z,22.6
2023-01-12T13:30:20.733Z,22.6
2023-01-12T13:31:23.238Z,22.6
2023-01-12T13:32:26.012Z,22.7
2023-01-12T13:33:28.574Z,22.5
2023-01-12T13:34:30.258Z,22.5
2023-01-12T13:35:32.835Z,22.7
2023-01-12T13:36:35.354Z,22.6
2023-01-12T13:37:37.617Z,22.5
2023-01-12T13:38:40.189Z,22.7
2023-01-12T13:39:42.198Z,22.6
2023-01-12T13:40:55.376Z,22.6
2023-01-12T13:41:49.183Z,22.6
2023-01-12T13:42:51.750Z,22.6
2023-01-12T13:43:54.419Z,22.6
2023-01-12T13:44:56.991Z,22.5
2023-01-12T13:45:59.741Z,22.5
2023-01-12T13:47:02.636Z,22.7
2023-01-12T13:48:04.072Z,22.6
2023-01-12T13:49:06.591Z,22.6
2023-01-12T13:50:08.561Z,22.8
2023-01-12T13:51:11.233Z,22.6
2023-01-12T13:52:13.228Z,22.6
2023-01-12T13:53:15.468Z,22.8
2023-01-12T13:54:18.038Z,22.6
2023-01-12T13:55:21.123Z,22.7
2023-01-12T13:56:23.685Z,22.5
2023-01-12T13:57:25.935Z,22.6